Pennside, Pennsylvania
Current Conditions -  °F | °C
As of 6:10 AM on Friday 24 Oct 2014 (Local Time) from KRDG Reporting Station
Overcast Overcast  
Wind Chill: 56°   Ceiling: 3100
Heat Index: 56°   Visibility: 10mi
Dew Point: 45°   Wind: 14mph
Humidity: 67%   Direction: 310°NW
Pressure: 29.88"   Gusts: 21mph
Location:  40.3351°N, 75.8521°W
Report Text: KRDG 241010Z 31012G18KT 10SM OVC031 13/07 A2988 RMK AO2 T01330072
Loading
Personal Weather Stations






























Interactive Weather Map
Tropical Storm Tracking
New forecast layout! Learn more

10-Day Weather Forecast

Advertisements
Track Severe Weather on mobile